createdAt,value
2023-03-01T00:01:47.842Z,1.40
2023-03-01T00:04:14.428Z,1.40
2023-03-01T00:06:41.118Z,1.30
2023-03-01T00:09:07.736Z,1.30
2023-03-01T00:11:34.788Z,1.20
2023-03-01T00:14:02.128Z,1.20
2023-03-01T00:16:31.147Z,1.10
2023-03-01T00:18:58.356Z,1.10
2023-03-01T00:21:24.978Z,1.00
2023-03-01T00:23:52.146Z,1.00
2023-03-01T00:26:19.990Z,0.90
2023-03-01T00:28:47.099Z,0.80
2023-03-01T00:31:17.769Z,0.80
2023-03-01T00:33:44.549Z,0.70
2023-03-01T00:36:12.242Z,0.70
2023-03-01T00:38:41.266Z,0.70
2023-03-01T00:41:08.859Z,0.60
2023-03-01T00:43:37.619Z,0.60
2023-03-01T00:46:05.607Z,0.60
2023-03-01T00:48:32.342Z,0.50
2023-03-01T00:51:04.812Z,0.50
2023-03-01T00:53:31.456Z,0.40
2023-03-01T00:55:58.915Z,0.40
2023-03-01T00:58:26.769Z,0.40
2023-03-01T01:00:53.684Z,0.30
2023-03-01T01:03:20.601Z,0.20
2023-03-01T01:05:47.259Z,0.20
2023-03-01T01:08:13.878Z,0.20
2023-03-01T01:10:40.535Z,0.10
2023-03-01T01:13:07.305Z,0.10
2023-03-01T01:15:34.710Z,0.10
2023-03-01T01:18:01.641Z,0.10
2023-03-01T01:20:28.265Z,0.00
2023-03-01T01:22:55.005Z,0.10
2023-03-01T01:25:21.808Z,0.10
2023-03-01T01:27:48.447Z,0.10
2023-03-01T01:30:15.102Z,0.10
2023-03-01T01:32:41.789Z,0.10
2023-03-01T01:35:08.463Z,0.10
2023-03-01T01:37:35.046Z,0.10
2023-03-01T01:40:04.603Z,0.10
2023-03-01T01:42:31.297Z,0.10
2023-03-01T01:45:16.660Z,0.10
2023-03-01T01:47:43.247Z,0.00
2023-03-01T01:50:15.351Z,0.10
2023-03-01T01:52:42.017Z,0.10
2023-03-01T01:55:15.764Z,0.10
2023-03-01T01:57:51.411Z,0.00
2023-03-01T02:00:19.927Z,0.00
2023-03-01T02:02:48.608Z,0.00
2023-03-01T02:05:33.732Z,-0.10
2023-03-01T02:08:00.693Z,-0.10
2023-03-01T02:10:27.864Z,-0.20
2023-03-01T02:12:55.273Z,-0.20
2023-03-01T02:15:21.937Z,-0.20
2023-03-01T02:17:49.296Z,-0.30
2023-03-01T02:20:22.918Z,-0.30
2023-03-01T02:22:49.840Z,-0.30
2023-03-01T02:25:31.918Z,-0.40
2023-03-01T02:28:17.025Z,-0.40
2023-03-01T02:31:04.448Z,-0.40
2023-03-01T02:33:37.014Z,-0.40
2023-03-01T02:36:14.231Z,-0.50
2023-03-01T02:38:44.769Z,-0.50
2023-03-01T02:41:12.990Z,-0.60
2023-03-01T02:43:39.733Z,-0.60
2023-03-01T02:46:08.166Z,-0.60
2023-03-01T02:48:46.366Z,-0.60
2023-03-01T02:51:19.988Z,-0.60
2023-03-01T02:53:54.511Z,-0.70
2023-03-01T02:56:21.081Z,-0.70
2023-03-01T02:58:52.185Z,-0.70
2023-03-01T03:01:22.050Z,-0.70
2023-03-01T03:03:48.755Z,-0.80
2023-03-01T03:06:15.509Z,-0.80
2023-03-01T03:08:42.265Z,-0.80
2023-03-01T03:11:08.919Z,-0.80
2023-03-01T03:13:35.579Z,-0.80
2023-03-01T03:16:03.140Z,-0.80
2023-03-01T03:18:29.931Z,-0.80
2023-03-01T03:20:56.582Z,-0.80
2023-03-01T03:23:23.353Z,-0.70
2023-03-01T03:25:50.926Z,-0.70
2023-03-01T03:28:17.599Z,-0.60
2023-03-01T03:30:45.683Z,-0.60
2023-03-01T03:33:13.821Z,-0.50
2023-03-01T03:35:44.973Z,-0.50
2023-03-01T03:38:18.672Z,-0.50
2023-03-01T03:40:48.374Z,-0.50
2023-03-01T03:43:19.325Z,-0.40
2023-03-01T03:45:46.860Z,-0.40
2023-03-01T03:48:13.499Z,-0.40
2023-03-01T03:50:40.828Z,-0.40
2023-03-01T03:53:09.297Z,-0.30
2023-03-01T03:55:36.290Z,-0.30
2023-03-01T03:58:07.840Z,-0.30
2023-03-01T04:00:39.488Z,-0.30
2023-03-01T04:03:06.245Z,-0.30
2023-03-01T04:05:32.972Z,-0.30
2023-03-01T04:08:02.563Z,-0.30
2023-03-01T04:10:33.933Z,-0.30
2023-03-01T04:13:00.603Z,-0.30
2023-03-01T04:15:28.025Z,-0.30
2023-03-01T04:17:55.121Z,-0.30
2023-03-01T04:20:26.158Z,-0.30
2023-03-01T04:22:53.765Z,-0.20
2023-03-01T04:25:20.777Z,-0.20
2023-03-01T04:27:47.467Z,-0.20
2023-03-01T04:30:14.368Z,-0.20
2023-03-01T04:32:41.164Z,-0.20
2023-03-01T04:35:08.007Z,-0.20
2023-03-01T04:37:35.830Z,-0.20
2023-03-01T04:40:13.275Z,-0.20
2023-03-01T04:42:39.932Z,-0.30
2023-03-01T04:45:13.921Z,-0.30
2023-03-01T04:47:45.235Z,-0.30
2023-03-01T04:50:12.409Z,-0.30
2023-03-01T04:52:39.164Z,-0.30
2023-03-01T04:55:06.560Z,-0.20
2023-03-01T04:57:33.348Z,-0.30
2023-03-01T05:00:00.053Z,-0.20
2023-03-01T05:02:26.730Z,-0.20
2023-03-01T05:04:53.421Z,-0.30
2023-03-01T05:07:20.418Z,-0.20
2023-03-01T05:09:47.381Z,-0.20
2023-03-01T05:12:14.772Z,-0.20
2023-03-01T05:14:42.009Z,-0.20
2023-03-01T05:17:08.916Z,-0.20
2023-03-01T05:19:35.639Z,-0.20
2023-03-01T05:22:05.673Z,-0.20
2023-03-01T05:24:33.378Z,-0.20
2023-03-01T05:27:00.194Z,-0.20
2023-03-01T05:29:27.406Z,-0.20
2023-03-01T05:31:54.932Z,-0.20
2023-03-01T05:34:28.834Z,-0.20
2023-03-01T05:36:55.474Z,-0.20
2023-03-01T05:39:23.460Z,-0.20
2023-03-01T05:41:53.330Z,-0.20
2023-03-01T05:44:19.941Z,-0.10
2023-03-01T05:46:46.659Z,-0.20
2023-03-01T05:49:17.007Z,-0.10
2023-03-01T05:51:44.730Z,-0.10
2023-03-01T05:54:11.385Z,-0.10
2023-03-01T05:56:38.139Z,-0.10
2023-03-01T05:59:08.838Z,-0.10
2023-03-01T06:01:36.156Z,-0.10
2023-03-01T06:04:03.203Z,-0.10
2023-03-01T06:06:30.173Z,-0.20
2023-03-01T06:08:57.069Z,-0.10
2023-03-01T06:11:23.671Z,-0.10
2023-03-01T06:13:50.313Z,-0.10
2023-03-01T06:16:17.020Z,-0.10
2023-03-01T06:18:43.748Z,-0.10
2023-03-01T06:21:10.445Z,0.00
2023-03-01T06:23:37.176Z,0.00
2023-03-01T06:26:08.078Z,0.00
2023-03-01T06:28:36.172Z,0.00
2023-03-01T06:31:02.933Z,0.00
2023-03-01T06:33:29.605Z,0.00
2023-03-01T06:35:57.377Z,0.10
2023-03-01T06:38:25.061Z,0.10
2023-03-01T06:40:57.370Z,0.10
2023-03-01T06:43:24.478Z,0.20
2023-03-01T06:45:51.445Z,0.20
2023-03-01T06:48:18.384Z,0.20
2023-03-01T06:50:45.226Z,0.20
2023-03-01T06:53:11.895Z,0.20
2023-03-01T06:55:38.516Z,0.20
2023-03-01T06:58:05.289Z,0.30
2023-03-01T07:00:32.173Z,0.30
2023-03-01T07:03:03.372Z,0.40
2023-03-01T07:05:30.819Z,0.40
2023-03-01T07:07:57.501Z,0.40
2023-03-01T07:10:24.516Z,0.40
2023-03-01T07:12:51.260Z,0.50
2023-03-01T07:15:18.254Z,0.60
2023-03-01T07:17:45.604Z,0.60
2023-03-01T07:20:12.717Z,0.60
2023-03-01T07:22:41.207Z,0.60
2023-03-01T07:25:08.042Z,0.70
2023-03-01T07:27:34.701Z,0.80
2023-03-01T07:30:01.390Z,0.80
2023-03-01T07:32:28.134Z,1.00
2023-03-01T07:34:55.903Z,1.00
2023-03-01T07:37:22.743Z,1.10
2023-03-01T07:39:49.410Z,1.10
2023-03-01T07:42:16.077Z,1.10
2023-03-01T07:44:42.731Z,1.20
2023-03-01T07:47:09.367Z,1.20
2023-03-01T07:49:37.071Z,1.30
2023-03-01T07:52:03.789Z,1.40
2023-03-01T07:54:30.430Z,1.50
2023-03-01T07:56:57.675Z,1.60
2023-03-01T07:59:29.812Z,1.60
2023-03-01T08:02:03.246Z,1.60
2023-03-01T08:04:29.982Z,1.70
2023-03-01T08:06:56.616Z,1.70
2023-03-01T08:09:23.363Z,1.80
2023-03-01T08:11:50.053Z,1.80
2023-03-01T08:14:16.736Z,1.90
2023-03-01T08:16:43.504Z,1.90
2023-03-01T08:19:11.387Z,2.00
2023-03-01T08:21:38.398Z,2.10
2023-03-01T08:24:05.833Z,2.20
2023-03-01T08:26:32.995Z,2.30
2023-03-01T08:29:00.841Z,2.30
2023-03-01T08:31:29.573Z,2.30
2023-03-01T08:33:57.813Z,2.40
2023-03-01T08:36:29.647Z,2.50
2023-03-01T08:38:56.576Z,2.50
2023-03-01T08:41:23.557Z,2.50
2023-03-01T08:43:50.552Z,2.50
2023-03-01T08:46:20.014Z,2.60
2023-03-01T08:48:49.569Z,2.70
2023-03-01T08:51:19.989Z,2.70
2023-03-01T08:53:47.107Z,2.70
2023-03-01T08:56:13.833Z,2.80
2023-03-01T08:58:58.291Z,2.90
2023-03-01T09:01:26.168Z,3.00
2023-03-01T09:03:53.014Z,3.10
2023-03-01T09:06:20.120Z,3.10
2023-03-01T09:08:50.866Z,3.20
2023-03-01T09:11:19.245Z,3.40
2023-03-01T09:13:53.131Z,3.50
2023-03-01T09:16:20.751Z,3.60
2023-03-01T09:18:52.258Z,3.50
2023-03-01T09:21:37.268Z,3.60
2023-03-01T09:24:06.427Z,3.50
2023-03-01T09:26:34.430Z,3.30
2023-03-01T09:29:01.204Z,3.30
2023-03-01T09:31:27.909Z,3.30
2023-03-01T09:33:55.585Z,3.40
2023-03-01T09:55:12.001Z,3.70
2023-03-01T09:57:42.510Z,3.60
2023-03-01T10:00:15.155Z,3.60
2023-03-01T10:02:47.671Z,3.70
2023-03-01T10:05:26.996Z,3.80
2023-03-01T10:07:57.854Z,3.90
2023-03-01T10:10:33.155Z,4.10
2023-03-01T10:19:29.471Z,4.70
2023-03-01T10:35:29.134Z,3.30
2023-03-01T10:38:00.053Z,3.10
2023-03-01T10:40:26.818Z,3.20
2023-03-01T10:42:53.730Z,3.40
2023-03-01T10:45:39.910Z,3.50
2023-03-01T10:48:09.615Z,3.60
2023-03-01T10:50:39.205Z,3.70
2023-03-01T10:53:19.928Z,3.80
2023-03-01T10:55:46.763Z,3.80
2023-03-01T10:58:20.818Z,4.00
2023-03-01T11:00:49.237Z,4.00
2023-03-01T11:03:20.168Z,3.90
2023-03-01T11:06:10.891Z,3.90
2023-03-01T11:08:42.549Z,3.90
2023-03-01T11:11:29.353Z,3.80
2023-03-01T11:13:57.662Z,3.70
2023-03-01T11:16:32.092Z,3.70
2023-03-01T11:19:14.095Z,3.80
2023-03-01T11:21:55.626Z,3.80
2023-03-01T11:24:26.370Z,3.80
2023-03-01T11:26:55.131Z,3.70
2023-03-01T11:29:48.928Z,3.80
2023-03-01T11:32:23.365Z,3.90
2023-03-01T11:35:25.953Z,4.00
2023-03-01T11:37:55.079Z,4.10
2023-03-01T11:40:30.908Z,4.10
2023-03-01T11:43:03.871Z,4.00
2023-03-01T11:45:41.175Z,4.00
2023-03-01T11:48:14.902Z,3.80
2023-03-01T11:50:44.057Z,3.70
2023-03-01T11:53:18.875Z,3.70
2023-03-01T11:56:04.391Z,3.70
2023-03-01T11:58:50.048Z,3.80
2023-03-01T12:01:19.644Z,3.80
2023-03-01T12:04:07.277Z,3.80
2023-03-01T12:06:52.853Z,3.80
2023-03-01T12:09:45.626Z,3.80
2023-03-01T12:12:30.828Z,3.90
2023-03-01T12:15:06.747Z,4.00
2023-03-01T12:17:50.207Z,4.10
2023-03-01T12:20:37.125Z,4.20
2023-03-01T12:23:20.698Z,4.20
2023-03-01T12:26:03.424Z,4.30
2023-03-01T12:28:33.171Z,4.30
2023-03-01T12:31:18.863Z,4.40
2023-03-01T12:33:48.743Z,4.50
2023-03-01T12:36:36.283Z,4.50
2023-03-01T12:39:21.728Z,4.50
2023-03-01T12:42:08.332Z,4.50
2023-03-01T12:44:42.670Z,4.50
2023-03-01T12:47:30.186Z,4.60
2023-03-01T12:50:05.608Z,4.70
2023-03-01T12:52:38.119Z,4.80
2023-03-01T12:55:07.549Z,4.80
2023-03-01T12:57:50.878Z,4.70
2023-03-01T13:00:33.639Z,4.80
2023-03-01T13:03:11.587Z,4.80
2023-03-01T13:05:41.296Z,4.80
2023-03-01T13:08:29.130Z,4.80
2023-03-01T13:10:58.782Z,4.90
2023-03-01T13:13:26.708Z,4.90
2023-03-01T13:15:53.774Z,4.90
2023-03-01T13:18:20.491Z,5.00
2023-03-01T13:20:49.193Z,5.00
2023-03-01T13:23:25.760Z,5.10
2023-03-01T13:26:01.453Z,5.20
2023-03-01T13:28:42.057Z,5.30
2023-03-01T13:31:10.169Z,5.30
2023-03-01T13:33:43.409Z,5.40
2023-03-01T13:36:14.302Z,5.40
2023-03-01T13:38:50.100Z,5.40
2023-03-01T13:41:19.015Z,5.40
2023-03-01T13:43:47.371Z,5.40
2023-03-01T13:46:16.875Z,5.40
2023-03-01T13:48:44.797Z,5.50
2023-03-01T13:51:12.523Z,5.50
2023-03-01T13:53:47.495Z,5.50
2023-03-01T13:56:16.300Z,5.50
2023-03-01T13:58:51.011Z,5.60
2023-03-01T14:01:25.641Z,5.50
2023-03-01T14:03:52.737Z,5.50
2023-03-01T14:06:24.356Z,5.60
2023-03-01T14:08:52.120Z,5.60
2023-03-01T14:11:21.833Z,5.60
2023-03-01T14:14:00.788Z,5.70
2023-03-01T14:16:40.483Z,5.70
2023-03-01T14:19:10.746Z,5.70
2023-03-01T14:21:38.430Z,5.70
2023-03-01T14:24:05.209Z,5.70
2023-03-01T14:26:33.794Z,5.70
2023-03-01T14:29:00.669Z,5.70
2023-03-01T14:31:30.306Z,5.70
2023-03-01T14:33:58.461Z,5.80
2023-03-01T14:36:29.554Z,5.80
2023-03-01T14:38:56.452Z,5.80
2023-03-01T14:41:24.251Z,5.80
2023-03-01T14:44:01.836Z,5.80
2023-03-01T14:46:39.218Z,5.80
2023-03-01T14:49:32.125Z,5.80
2023-03-01T14:52:02.788Z,5.80
2023-03-01T14:54:37.065Z,5.80
2023-03-01T14:57:03.786Z,5.70
2023-03-01T14:59:30.473Z,5.70
2023-03-01T15:01:58.718Z,5.70
2023-03-01T15:04:30.747Z,5.70
2023-03-01T15:07:02.960Z,5.70
2023-03-01T15:09:29.870Z,5.60
2023-03-01T15:11:56.523Z,5.60
2023-03-01T15:14:49.361Z,5.60
2023-03-01T15:17:36.838Z,5.60
2023-03-01T15:20:05.264Z,5.70
2023-03-01T15:22:32.196Z,5.60
2023-03-01T15:24:58.962Z,5.60
2023-03-01T15:27:27.089Z,5.60
2023-03-01T15:30:00.148Z,5.60
2023-03-01T15:32:33.823Z,5.60
2023-03-01T15:35:01.802Z,5.50
2023-03-01T15:38:01.507Z,5.60
2023-03-01T15:40:38.299Z,5.60
2023-03-01T15:43:06.937Z,5.50
2023-03-01T15:45:39.426Z,5.50
2023-03-01T15:48:15.373Z,5.50
2023-03-01T15:50:44.222Z,5.50
2023-03-01T15:53:16.649Z,5.50
2023-03-01T15:55:43.248Z,5.50
2023-03-01T15:58:19.052Z,5.50
2023-03-01T16:00:59.875Z,5.60
2023-03-01T16:03:27.429Z,5.60
2023-03-01T16:05:54.637Z,5.50
2023-03-01T16:08:21.452Z,5.50
2023-03-01T16:10:50.877Z,5.50
2023-03-01T16:16:46.551Z,5.40
2023-03-01T16:19:15.445Z,5.20
2023-03-01T16:21:43.216Z,5.20
2023-03-01T16:24:10.215Z,5.10
2023-03-01T16:26:37.575Z,5.10
2023-03-01T16:29:04.668Z,5.00
2023-03-01T16:31:31.995Z,4.90
2023-03-01T16:33:59.976Z,4.90
2023-03-01T16:36:29.063Z,4.80
2023-03-01T16:38:58.511Z,4.70
2023-03-01T16:41:25.573Z,4.60
2023-03-01T16:43:52.314Z,4.50
2023-03-01T16:46:20.610Z,4.50
2023-03-01T16:48:47.978Z,4.40
2023-03-01T16:51:15.336Z,4.30
2023-03-01T16:53:42.387Z,4.30
2023-03-01T16:56:10.889Z,4.20
2023-03-01T16:58:38.297Z,4.10
2023-03-01T17:01:09.093Z,4.00
2023-03-01T17:03:38.632Z,4.00
2023-03-01T17:06:06.449Z,3.90
2023-03-01T17:08:33.300Z,3.80
2023-03-01T17:11:04.205Z,3.80
2023-03-01T17:13:30.845Z,3.80
2023-03-01T17:15:57.503Z,3.70
2023-03-01T17:18:25.249Z,3.70
2023-03-01T17:20:51.910Z,3.70
2023-03-01T17:23:18.528Z,3.70
2023-03-01T17:25:48.298Z,3.60
2023-03-01T17:28:15.037Z,3.60
2023-03-01T17:30:42.255Z,3.60
2023-03-01T17:33:08.948Z,3.50
2023-03-01T17:35:38.013Z,3.50
2023-03-01T17:38:05.200Z,3.50
2023-03-01T17:40:32.249Z,3.40
2023-03-01T17:42:59.163Z,3.40
2023-03-01T17:45:25.817Z,3.40
2023-03-01T17:47:52.448Z,3.40
2023-03-01T17:50:19.138Z,3.50
2023-03-01T17:52:45.880Z,3.50
2023-03-01T17:55:12.679Z,3.50
2023-03-01T17:57:40.621Z,3.60
2023-03-01T18:00:10.351Z,3.60
2023-03-01T18:02:36.981Z,3.50
2023-03-01T18:05:04.260Z,3.50
2023-03-01T18:07:30.897Z,3.50
2023-03-01T18:09:57.494Z,3.50
2023-03-01T18:12:24.249Z,3.50
2023-03-01T18:14:53.617Z,3.40
2023-03-01T18:17:22.908Z,3.30
2023-03-01T18:19:50.440Z,3.30
2023-03-01T18:22:18.913Z,3.20
2023-03-01T18:24:45.557Z,3.20
2023-03-01T18:27:12.196Z,3.20
2023-03-01T18:29:38.861Z,3.20
2023-03-01T18:32:05.938Z,3.20
2023-03-01T18:34:33.470Z,3.20
2023-03-01T18:37:09.111Z,3.20
2023-03-01T18:39:44.961Z,3.20
2023-03-01T18:42:11.640Z,3.20
2023-03-01T18:44:38.568Z,3.10
2023-03-01T18:47:05.225Z,3.10
2023-03-01T18:49:31.986Z,3.10
2023-03-01T18:51:59.080Z,3.00
2023-03-01T18:54:25.704Z,3.00
2023-03-01T18:57:03.658Z,3.00
2023-03-01T18:59:48.142Z,3.00
2023-03-01T19:02:15.673Z,3.00
2023-03-01T19:04:42.742Z,3.00
2023-03-01T19:07:09.480Z,2.90
2023-03-01T19:09:36.251Z,2.90
2023-03-01T19:12:03.638Z,2.90
2023-03-01T19:14:30.337Z,2.90
2023-03-01T19:16:57.122Z,2.90
2023-03-01T19:19:23.797Z,2.90
2023-03-01T19:21:59.336Z,2.80
2023-03-01T19:24:31.265Z,2.80
2023-03-01T19:26:57.977Z,2.80
2023-03-01T19:29:24.701Z,2.80
2023-03-01T19:31:51.410Z,2.80
2023-03-01T19:34:18.433Z,2.70
2023-03-01T19:36:45.253Z,2.80
2023-03-01T19:39:13.744Z,2.70
2023-03-01T19:41:40.773Z,2.70
2023-03-01T19:44:08.620Z,2.60
2023-03-01T19:46:36.093Z,2.60
2023-03-01T19:49:03.587Z,2.60
2023-03-01T19:51:33.245Z,2.60
2023-03-01T19:53:59.860Z,2.60
2023-03-01T19:56:26.522Z,2.50
2023-03-01T19:59:00.155Z,2.50
2023-03-01T20:01:30.602Z,2.50
2023-03-01T20:03:57.405Z,2.40
2023-03-01T20:06:25.799Z,2.50
2023-03-01T20:08:52.731Z,2.40
2023-03-01T20:11:19.917Z,2.40
2023-03-01T20:13:46.589Z,2.40
2023-03-01T20:16:15.840Z,2.40
2023-03-01T20:18:42.851Z,2.40
2023-03-01T20:21:21.655Z,2.40
2023-03-01T20:23:50.523Z,2.40
2023-03-01T20:26:19.733Z,2.40
2023-03-01T20:28:50.337Z,2.40
2023-03-01T20:31:18.322Z,2.40
2023-03-01T20:33:44.991Z,2.50
2023-03-01T20:36:12.230Z,2.40
2023-03-01T20:38:39.054Z,2.40
2023-03-01T20:41:10.446Z,2.40
2023-03-01T20:43:37.397Z,2.40
2023-03-01T20:46:08.125Z,2.30
2023-03-01T20:48:34.989Z,2.30
2023-03-01T20:51:05.309Z,2.30
2023-03-01T20:53:32.069Z,2.20
2023-03-01T20:56:17.701Z,2.20
2023-03-01T20:58:44.613Z,2.20
2023-03-01T21:01:15.491Z,2.10
2023-03-01T21:03:42.313Z,2.10
2023-03-01T21:06:09.224Z,2.10
2023-03-01T21:08:36.278Z,2.10
2023-03-01T21:11:05.692Z,2.00
2023-03-01T21:13:33.695Z,2.00
2023-03-01T21:16:21.677Z,2.00
2023-03-01T21:18:48.792Z,2.00
2023-03-01T21:21:20.072Z,2.00
2023-03-01T21:24:03.186Z,2.00
2023-03-01T21:26:35.901Z,2.00
2023-03-01T21:29:02.708Z,2.00
2023-03-01T21:31:34.824Z,1.90
2023-03-01T21:34:04.229Z,2.00
2023-03-01T21:36:35.398Z,1.90
2023-03-01T22:15:26.131Z,1.70
2023-03-01T22:42:59.803Z,1.60
2023-03-01T22:45:28.602Z,1.60
2023-03-01T22:47:55.577Z,1.50
2023-03-01T22:50:22.377Z,1.50
2023-03-01T22:52:49.024Z,1.50
2023-03-01T22:55:15.690Z,1.40
2023-03-01T23:00:46.273Z,1.40
2023-03-01T23:43:09.805Z,1.00
2023-03-01T23:45:43.195Z,1.00
2023-03-01T23:48:13.512Z,1.00
2023-03-01T23:50:44.058Z,1.00
2023-03-01T23:53:12.821Z,0.90
2023-03-01T23:55:42.537Z,0.90
2023-03-01T23:58:09.350Z,0.90
